createdAt,value
2018-11-01T00:02:22.442Z,83.50
2018-11-01T00:04:49.957Z,84.60
2018-11-01T00:07:17.634Z,86.30
2018-11-01T00:09:45.163Z,85.60
2018-11-01T00:12:12.690Z,85.20
2018-11-01T00:14:40.289Z,84.80
2018-11-01T00:17:07.792Z,84.40
2018-11-01T00:19:35.372Z,84.40
2018-11-01T00:22:02.890Z,84.40
2018-11-01T00:24:30.453Z,84.70
2018-11-01T00:26:57.922Z,84.90
2018-11-01T00:29:26.104Z,85.00
2018-11-01T00:31:53.606Z,84.90
2018-11-01T00:34:21.150Z,85.10
2018-11-01T00:36:48.654Z,85.10
2018-11-01T00:39:16.207Z,84.90
2018-11-01T00:41:43.722Z,84.70
2018-11-01T00:44:11.346Z,84.70
2018-11-01T00:46:38.922Z,84.60
2018-11-01T00:49:06.713Z,84.90
2018-11-01T00:51:34.292Z,84.70
2018-11-01T00:54:01.880Z,84.80
2018-11-01T00:56:29.483Z,84.90
2018-11-01T00:58:56.998Z,84.80
2018-11-01T01:01:24.583Z,84.80
2018-11-01T01:03:52.114Z,84.70
2018-11-01T01:06:19.732Z,84.90
2018-11-01T01:08:47.257Z,84.90
2018-11-01T01:11:14.809Z,84.90
2018-11-01T01:13:43.237Z,85.00
2018-11-01T01:16:10.843Z,84.90
2018-11-01T01:18:38.342Z,84.90
2018-11-01T01:21:06.152Z,84.90
2018-11-01T01:23:33.671Z,85.10
2018-11-01T01:26:01.333Z,85.30
2018-11-01T01:28:28.818Z,85.40
2018-11-01T01:30:56.398Z,85.30
2018-11-01T01:33:23.885Z,85.20
2018-11-01T01:35:51.391Z,85.50
2018-11-01T01:38:18.958Z,86.20
2018-11-01T01:40:46.435Z,86.20
2018-11-01T01:43:13.992Z,85.90
2018-11-01T01:45:41.468Z,85.50
2018-11-01T01:48:09.121Z,85.20
2018-11-01T01:50:36.631Z,85.00
2018-11-01T01:53:04.261Z,85.10
2018-11-01T01:55:31.735Z,85.30
2018-11-01T01:57:59.283Z,85.10
2018-11-01T02:00:26.774Z,85.30
2018-11-01T02:02:54.320Z,85.20
2018-11-01T02:05:21.811Z,85.30
2018-11-01T02:07:49.344Z,85.40
2018-11-01T02:10:17.506Z,85.40
2018-11-01T02:12:45.045Z,85.70
2018-11-01T02:15:14.863Z,85.40
2018-11-01T02:17:42.853Z,85.20
2018-11-01T02:20:12.124Z,85.20
2018-11-01T02:22:40.016Z,85.00
2018-11-01T02:25:07.962Z,84.90
2018-11-01T02:27:41.168Z,85.00
2018-11-01T02:30:11.177Z,85.10
2018-11-01T02:32:39.057Z,84.90
2018-11-01T02:35:07.397Z,84.90
2018-11-01T02:37:34.882Z,85.50
2018-11-01T02:40:02.519Z,85.80
2018-11-01T02:42:29.998Z,85.80
2018-11-01T02:44:57.546Z,85.50
2018-11-01T02:47:25.021Z,85.20
2018-11-01T02:49:52.692Z,85.20
2018-11-01T02:52:20.234Z,85.80
2018-11-01T02:54:47.772Z,86.30
2018-11-01T02:57:15.378Z,86.50
2018-11-01T02:59:42.964Z,86.40
2018-11-01T03:02:10.510Z,86.20
2018-11-01T03:04:38.012Z,85.90
2018-11-01T03:07:05.595Z,86.10
2018-11-01T03:09:33.053Z,86.80
2018-11-01T03:12:00.988Z,86.90
2018-11-01T03:14:28.450Z,87.30
2018-11-01T03:16:56.019Z,87.10
2018-11-01T03:19:23.501Z,87.20
2018-11-01T03:21:51.050Z,88.70
2018-11-01T03:24:18.561Z,88.50
2018-11-01T03:26:46.094Z,88.50
2018-11-01T03:29:13.562Z,88.10
2018-11-01T03:31:41.043Z,88.20
2018-11-01T03:34:08.686Z,88.40
2018-11-01T03:36:36.150Z,87.20
2018-11-01T03:39:05.118Z,86.90
2018-11-01T03:41:32.638Z,87.40
2018-11-01T03:44:00.214Z,87.80
2018-11-01T03:46:27.705Z,88.00
2018-11-01T03:48:55.323Z,87.80
2018-11-01T03:51:22.815Z,87.80
2018-11-01T03:53:50.356Z,87.70
2018-11-01T03:56:17.826Z,87.70
2018-11-01T03:58:45.360Z,87.70
2018-11-01T04:01:12.820Z,88.00
2018-11-01T04:03:40.457Z,89.30
2018-11-01T04:06:07.865Z,89.20
2018-11-01T04:08:35.429Z,89.00
2018-11-01T04:11:02.930Z,89.00
2018-11-01T04:13:30.425Z,89.20
2018-11-01T04:15:58.023Z,88.70
2018-11-01T04:18:25.481Z,88.90
2018-11-01T04:20:53.025Z,89.50
2018-11-01T04:23:20.627Z,90.60
2018-11-01T04:25:48.074Z,90.50
2018-11-01T04:28:15.550Z,90.40
2018-11-01T04:30:43.095Z,90.20
2018-11-01T04:33:10.624Z,90.20
2018-11-01T04:35:38.201Z,90.20
2018-11-01T04:38:05.615Z,90.00
2018-11-01T04:40:33.255Z,90.10
2018-11-01T04:43:00.904Z,90.30
2018-11-01T04:45:29.018Z,90.20
2018-11-01T04:47:56.584Z,90.30
2018-11-01T04:50:24.131Z,90.30
2018-11-01T04:52:51.589Z,90.30
2018-11-01T04:55:19.155Z,90.20
2018-11-01T04:57:46.629Z,90.10
2018-11-01T05:00:14.273Z,90.30
2018-11-01T05:02:42.416Z,90.10
2018-11-01T05:05:09.989Z,90.00
2018-11-01T05:07:37.926Z,90.00
2018-11-01T05:10:06.698Z,90.10
2018-11-01T05:12:34.245Z,90.00
2018-11-01T05:15:02.862Z,90.10
2018-11-01T05:17:30.402Z,90.40
2018-11-01T05:19:57.951Z,90.70
2018-11-01T05:22:25.494Z,90.70
2018-11-01T05:24:52.974Z,90.90
2018-11-01T05:27:20.490Z,90.90
2018-11-01T05:29:47.951Z,90.90
2018-11-01T05:32:15.481Z,91.00
2018-11-01T05:34:43.014Z,91.20
2018-11-01T05:37:10.595Z,91.30
2018-11-01T05:39:38.071Z,91.10
2018-11-01T05:42:05.663Z,91.00
2018-11-01T05:44:33.376Z,90.90
2018-11-01T05:47:00.936Z,90.90
2018-11-01T05:49:28.543Z,91.20
2018-11-01T05:51:56.164Z,90.90
2018-11-01T05:54:23.693Z,91.20
2018-11-01T05:56:51.156Z,91.20
2018-11-01T05:59:18.693Z,91.30
2018-11-01T06:01:49.574Z,91.50
2018-11-01T06:04:17.049Z,91.50
2018-11-01T06:06:44.577Z,91.40
2018-11-01T06:09:17.746Z,91.40
2018-11-01T06:11:45.316Z,91.30
2018-11-01T06:14:12.989Z,91.20
2018-11-01T06:16:40.512Z,91.10
2018-11-01T06:19:08.037Z,91.00
2018-11-01T06:21:35.738Z,91.00
2018-11-01T06:24:03.358Z,91.00
2018-11-01T06:26:30.899Z,91.00
2018-11-01T06:28:58.442Z,90.90
2018-11-01T06:31:25.915Z,90.70
2018-11-01T06:33:53.578Z,90.80
2018-11-01T06:36:21.062Z,90.80
2018-11-01T06:38:48.555Z,90.80
2018-11-01T06:41:16.184Z,90.70
2018-11-01T06:43:43.679Z,90.90
2018-11-01T06:46:11.254Z,91.20
2018-11-01T06:48:38.798Z,91.20
2018-11-01T06:51:06.544Z,91.50
2018-11-01T06:53:34.045Z,91.90
2018-11-01T06:56:01.617Z,92.10
2018-11-01T06:58:29.301Z,91.90
2018-11-01T07:00:56.743Z,91.90
2018-11-01T07:03:24.278Z,91.70
2018-11-01T07:05:51.927Z,91.70
2018-11-01T07:08:19.497Z,91.60
2018-11-01T07:10:47.068Z,91.90
2018-11-01T07:13:14.765Z,92.10
2018-11-01T07:15:42.669Z,92.50
2018-11-01T07:18:10.233Z,92.80
2018-11-01T07:20:37.709Z,92.90
2018-11-01T07:23:05.674Z,93.30
2018-11-01T07:25:33.258Z,93.40
2018-11-01T07:28:01.002Z,93.40
2018-11-01T07:30:28.478Z,93.20
2018-11-01T07:32:56.143Z,93.20
2018-11-01T07:35:23.597Z,93.10
2018-11-01T07:37:51.171Z,92.80
2018-11-01T07:40:18.983Z,92.90
2018-11-01T07:42:46.515Z,93.60
2018-11-01T07:45:14.610Z,93.50
2018-11-01T07:47:43.078Z,93.60
2018-11-01T07:50:11.549Z,93.70
2018-11-01T07:52:39.666Z,93.60
2018-11-01T07:55:08.791Z,93.40
2018-11-01T07:57:36.360Z,93.30
2018-11-01T08:00:06.154Z,93.50
2018-11-01T08:02:33.650Z,93.40
2018-11-01T08:05:01.732Z,93.60
2018-11-01T08:07:29.235Z,93.80
2018-11-01T08:09:56.798Z,93.80
2018-11-01T08:12:24.342Z,93.70
2018-11-01T08:14:51.923Z,93.70
2018-11-01T08:17:19.451Z,94.20
2018-11-01T08:19:49.340Z,94.20
2018-11-01T08:22:17.050Z,94.20
2018-11-01T08:24:44.622Z,94.30
2018-11-01T08:27:12.183Z,94.30
2018-11-01T08:29:39.782Z,94.30
2018-11-01T08:32:07.308Z,94.50
2018-11-01T08:34:34.834Z,94.50
2018-11-01T08:37:02.877Z,94.60
2018-11-01T08:39:30.393Z,94.60
2018-11-01T08:41:57.967Z,94.60
2018-11-01T08:44:25.475Z,94.40
2018-11-01T08:46:53.104Z,94.50
2018-11-01T08:49:20.793Z,94.40
2018-11-01T08:51:48.330Z,94.20
2018-11-01T08:54:15.806Z,94.10
2018-11-01T08:56:43.416Z,93.50
2018-11-01T08:59:10.922Z,93.60
2018-11-01T09:01:38.560Z,94.10
2018-11-01T09:04:06.340Z,94.30
2018-11-01T09:06:33.958Z,94.20
2018-11-01T09:09:01.510Z,94.30
2018-11-01T09:11:29.119Z,94.40
2018-11-01T09:13:56.646Z,94.10
2018-11-01T09:16:24.326Z,94.40
2018-11-01T09:18:51.807Z,94.50
2018-11-01T09:21:19.457Z,94.40
2018-11-01T09:23:47.080Z,94.20
2018-11-01T09:26:14.605Z,94.80
2018-11-01T09:28:42.198Z,94.60
2018-11-01T09:31:09.754Z,94.80
2018-11-01T09:33:37.357Z,94.90
2018-11-01T09:36:05.344Z,94.80
2018-11-01T09:38:32.930Z,94.80
2018-11-01T09:41:00.427Z,94.60
2018-11-01T09:43:28.030Z,95.20
2018-11-01T09:45:55.656Z,95.00
2018-11-01T09:48:23.191Z,96.10
2018-11-01T09:50:50.778Z,96.50
2018-11-01T09:53:18.332Z,96.70
2018-11-01T09:55:46.008Z,96.70
2018-11-01T09:58:13.574Z,96.80
2018-11-01T10:00:41.049Z,97.20
2018-11-01T10:03:08.649Z,97.50
2018-11-01T10:05:36.147Z,98.10
2018-11-01T10:08:03.823Z,98.50
2018-11-01T10:10:31.335Z,98.30
2018-11-01T10:12:58.939Z,98.90
2018-11-01T10:15:26.652Z,98.70
2018-11-01T10:17:54.432Z,98.80
2018-11-01T10:20:22.040Z,98.90
2018-11-01T10:22:49.659Z,98.50
2018-11-01T10:25:17.192Z,98.50
2018-11-01T10:27:45.079Z,99.10
2018-11-01T10:30:14.686Z,98.80
2018-11-01T10:32:42.885Z,98.70
2018-11-01T10:35:10.545Z,99.20
2018-11-01T10:37:38.528Z,98.60
2018-11-01T10:40:08.444Z,98.10
2018-11-01T10:42:35.966Z,96.30
2018-11-01T10:45:03.713Z,96.40
2018-11-01T10:47:31.252Z,96.20
2018-11-01T10:49:58.978Z,95.50
2018-11-01T10:52:26.562Z,94.40
2018-11-01T10:54:54.182Z,93.80
2018-11-01T10:57:21.749Z,93.50
2018-11-01T10:59:49.396Z,93.90
2018-11-01T11:02:22.829Z,93.10
2018-11-01T11:04:50.456Z,92.90
2018-11-01T11:07:17.994Z,93.20
2018-11-01T11:09:45.607Z,92.90
2018-11-01T11:12:13.266Z,93.80
2018-11-01T11:14:41.218Z,92.10
2018-11-01T11:17:08.724Z,92.10
2018-11-01T11:19:36.408Z,91.70
2018-11-01T11:22:04.158Z,91.80
2018-11-01T11:24:31.670Z,92.80
2018-11-01T11:26:59.286Z,92.40
2018-11-01T11:29:26.772Z,92.20
2018-11-01T11:31:54.436Z,91.30
2018-11-01T11:34:21.968Z,90.70
2018-11-01T11:36:49.611Z,90.60
2018-11-01T11:39:17.118Z,90.10
2018-11-01T11:41:44.694Z,88.60
2018-11-01T11:44:12.253Z,89.90
2018-11-01T11:46:39.927Z,87.70
2018-11-01T11:49:07.549Z,88.00
2018-11-01T11:51:35.900Z,85.90
2018-11-01T11:54:03.524Z,85.40
2018-11-01T11:56:31.373Z,85.10
2018-11-01T11:58:58.986Z,83.40
2018-11-01T12:01:26.555Z,84.90
2018-11-01T12:03:54.189Z,84.50
2018-11-01T12:06:21.905Z,79.10
2018-11-01T12:08:49.398Z,77.30
2018-11-01T12:11:16.988Z,77.90
2018-11-01T12:13:44.575Z,76.80
2018-11-01T12:16:12.090Z,75.10
2018-11-01T12:18:39.702Z,71.90
2018-11-01T12:21:07.348Z,72.40
2018-11-01T12:23:34.856Z,73.90
2018-11-01T12:26:02.606Z,74.40
2018-11-01T12:28:30.204Z,74.00
2018-11-01T12:30:57.757Z,73.90
2018-11-01T12:33:25.311Z,74.60
2018-11-01T12:35:52.899Z,73.90
2018-11-01T12:38:20.371Z,74.50
2018-11-01T12:40:47.967Z,76.50
2018-11-01T12:43:15.471Z,77.50
2018-11-01T12:45:43.078Z,78.10
2018-11-01T12:48:10.564Z,79.90
2018-11-01T12:50:38.247Z,78.50
2018-11-01T12:53:05.756Z,78.10
2018-11-01T12:55:33.381Z,76.70
2018-11-01T12:58:00.902Z,78.00
2018-11-01T13:00:28.521Z,78.30
2018-11-01T13:02:56.103Z,77.30
2018-11-01T13:05:23.648Z,78.40
2018-11-01T13:07:51.210Z,78.70
2018-11-01T13:10:18.799Z,78.80
2018-11-01T13:12:46.443Z,77.50
2018-11-01T13:15:13.959Z,77.00
2018-11-01T13:17:41.581Z,78.00
2018-11-01T13:20:09.494Z,77.90
2018-11-01T13:22:37.134Z,78.70
2018-11-01T13:25:05.761Z,78.10
2018-11-01T13:27:33.513Z,78.70
2018-11-01T13:30:01.142Z,77.60
2018-11-01T13:32:28.737Z,77.60
2018-11-01T13:34:56.343Z,78.80
2018-11-01T13:37:23.881Z,79.10
2018-11-01T13:39:51.613Z,77.90
2018-11-01T13:42:18.955Z,79.00
2018-11-01T13:44:46.539Z,78.70
2018-11-01T13:47:14.251Z,78.80
2018-11-01T13:49:41.918Z,77.20
2018-11-01T13:52:09.457Z,76.80
2018-11-01T13:54:37.051Z,76.40
2018-11-01T13:57:04.679Z,77.40
2018-11-01T13:59:32.313Z,76.10
2018-11-01T14:01:59.819Z,77.40
2018-11-01T14:04:27.429Z,78.50
2018-11-01T14:06:55.011Z,78.50
2018-11-01T14:09:22.704Z,78.40
2018-11-01T14:11:50.285Z,78.20
2018-11-01T14:14:18.393Z,78.00
2018-11-01T14:16:45.519Z,77.10
2018-11-01T14:19:13.111Z,77.30
2018-11-01T14:21:40.614Z,77.90
2018-11-01T14:24:08.340Z,79.50
2018-11-01T14:26:35.898Z,78.40
2018-11-01T14:29:26.859Z,79.00
2018-11-01T14:31:54.489Z,78.90
2018-11-01T14:34:22.090Z,79.00
2018-11-01T14:36:49.676Z,78.60
2018-11-01T14:39:17.204Z,78.60
2018-11-01T14:41:44.740Z,79.20
2018-11-01T14:44:12.392Z,80.10
2018-11-01T14:46:39.962Z,79.80
2018-11-01T14:49:07.721Z,80.50
2018-11-01T14:51:35.372Z,79.30
2018-11-01T14:54:03.970Z,78.60
2018-11-01T14:56:31.959Z,78.40
2018-11-01T14:58:59.550Z,77.00
2018-11-01T15:01:25.758Z,77.70
2018-11-01T15:03:53.261Z,78.10
2018-11-01T15:06:20.959Z,76.40
2018-11-01T15:08:48.591Z,76.10
2018-11-01T15:11:16.249Z,76.40
2018-11-01T15:13:43.850Z,76.70
2018-11-01T15:16:11.446Z,76.90
2018-11-01T15:18:39.009Z,77.00
2018-11-01T15:21:06.609Z,76.60
2018-11-01T15:23:34.224Z,76.60
2018-11-01T15:26:02.245Z,77.50
2018-11-01T15:28:29.963Z,77.40
2018-11-01T15:30:57.480Z,77.20
2018-11-01T15:33:25.174Z,77.00
2018-11-01T15:35:52.689Z,77.40
2018-11-01T15:38:20.638Z,77.10
2018-11-01T15:40:52.734Z,77.30
2018-11-01T15:43:20.354Z,76.80
2018-11-01T15:45:47.963Z,76.60
2018-11-01T15:48:15.617Z,76.40
2018-11-01T15:50:43.217Z,75.90
2018-11-01T15:53:10.795Z,77.10
2018-11-01T15:55:38.367Z,76.30
2018-11-01T15:58:05.973Z,76.10
2018-11-01T16:00:33.522Z,76.10
2018-11-01T16:03:01.573Z,76.10
2018-11-01T16:05:29.102Z,76.10
2018-11-01T16:07:56.758Z,76.30
2018-11-01T16:10:24.310Z,76.20
2018-11-01T16:12:51.875Z,76.50
2018-11-01T16:15:19.466Z,76.60
2018-11-01T16:17:46.993Z,76.70
2018-11-01T16:20:14.752Z,76.90
2018-11-01T16:22:42.153Z,77.10
2018-11-01T16:25:09.783Z,77.20
2018-11-01T16:27:37.332Z,77.50
2018-11-01T16:30:05.756Z,78.20
2018-11-01T16:32:33.422Z,77.70
2018-11-01T16:35:01.157Z,77.70
2018-11-01T16:37:29.081Z,77.90
2018-11-01T16:39:56.600Z,78.20
2018-11-01T16:42:24.365Z,78.90
2018-11-01T16:44:51.777Z,79.80
2018-11-01T16:47:19.687Z,81.00
2018-11-01T16:49:47.335Z,81.20
2018-11-01T16:52:15.015Z,80.80
2018-11-01T16:54:42.536Z,80.80
2018-11-01T17:00:05.123Z,80.80
2018-11-01T17:02:32.725Z,80.90
2018-11-01T17:05:10.674Z,81.00
2018-11-01T17:07:38.391Z,81.10
2018-11-01T17:10:07.508Z,81.10
2018-11-01T17:12:35.240Z,81.90
2018-11-01T17:15:03.026Z,81.80
2018-11-01T17:17:30.826Z,81.70
2018-11-01T17:19:58.330Z,81.70
2018-11-01T17:22:26.195Z,82.10
2018-11-01T17:24:55.210Z,82.20
2018-11-01T17:27:22.730Z,82.50
2018-11-01T17:29:50.396Z,82.80
2018-11-01T17:32:17.954Z,83.50
2018-11-01T17:34:45.609Z,83.60
2018-11-01T17:37:13.183Z,83.20
2018-11-01T17:39:40.850Z,83.40
2018-11-01T17:42:08.401Z,83.20
2018-11-01T17:44:36.037Z,83.20
2018-11-01T17:47:03.678Z,83.30
2018-11-01T17:49:31.416Z,83.40
2018-11-01T17:51:58.963Z,84.80
2018-11-01T17:54:26.632Z,85.30
2018-11-01T17:56:54.158Z,85.20
2018-11-01T17:59:21.806Z,85.60
2018-11-01T18:01:49.495Z,85.20
2018-11-01T18:04:17.041Z,84.80
2018-11-01T18:06:44.590Z,84.20
2018-11-01T18:09:14.443Z,84.80
2018-11-01T18:12:45.538Z,85.50
2018-11-01T18:18:15.371Z,85.80
2018-11-01T18:21:14.443Z,85.80
2018-11-01T18:23:44.117Z,85.60
2018-11-01T18:26:11.751Z,85.50
2018-11-01T18:28:40.477Z,85.60
2018-11-01T18:31:08.989Z,85.80
2018-11-01T18:47:45.523Z,86.10
2018-11-01T18:50:14.485Z,86.80
2018-11-01T18:52:44.957Z,87.50
2018-11-01T18:57:57.214Z,87.60
2018-11-01T19:03:36.388Z,88.20
2018-11-01T19:06:23.006Z,88.70
2018-11-01T19:12:30.725Z,88.50
2018-11-01T19:15:09.912Z,88.70
2018-11-01T19:17:48.597Z,88.90
2018-11-01T19:20:35.883Z,89.20
2018-11-01T19:23:45.531Z,89.50
2018-11-01T19:26:13.130Z,90.00
2018-11-01T19:28:41.165Z,90.50
2018-11-01T19:31:09.052Z,91.40
2018-11-01T19:33:44.967Z,92.50
2018-11-01T19:36:14.236Z,94.00
2018-11-01T19:38:41.835Z,95.00
2018-11-01T19:41:09.385Z,95.90
2018-11-01T19:43:53.713Z,96.00
2018-11-01T19:46:46.259Z,96.30
2018-11-01T19:52:16.677Z,96.40
2018-11-01T19:55:03.635Z,96.70
2018-11-01T20:05:10.099Z,96.70
2018-11-01T20:07:37.859Z,97.20
2018-11-01T20:10:07.234Z,97.10
2018-11-01T20:12:34.864Z,96.90
2018-11-01T20:15:02.783Z,96.60
2018-11-01T20:20:22.727Z,95.80
2018-11-01T20:22:50.563Z,95.60
2018-11-01T20:25:43.925Z,95.50
2018-11-01T20:28:12.117Z,95.80
2018-11-01T20:30:40.100Z,95.90
2018-11-01T20:33:20.746Z,96.30
2018-11-01T20:35:51.482Z,96.60
2018-11-01T20:38:19.206Z,96.60
2018-11-01T20:40:46.789Z,96.80
2018-11-01T20:43:14.486Z,96.90
2018-11-01T20:45:41.990Z,96.80
2018-11-01T20:48:09.648Z,96.80
2018-11-01T20:50:37.310Z,97.00
2018-11-01T20:53:05.387Z,97.00
2018-11-01T20:55:32.982Z,97.40
2018-11-01T20:58:00.882Z,97.40
2018-11-01T21:00:28.423Z,97.70
2018-11-01T21:02:56.056Z,97.90
2018-11-01T21:05:23.623Z,97.80
2018-11-01T21:07:51.293Z,97.80
2018-11-01T21:10:18.857Z,97.90
2018-11-01T21:12:46.539Z,97.90
2018-11-01T21:15:14.593Z,98.10
2018-11-01T21:17:42.144Z,98.10
2018-11-01T21:20:09.895Z,99.00
2018-11-01T21:22:37.459Z,98.50
2018-11-01T21:25:05.866Z,98.30
2018-11-01T21:27:33.445Z,98.10
2018-11-01T21:30:01.020Z,98.40
2018-11-01T21:32:28.595Z,98.30
2018-11-01T21:34:56.418Z,98.40
2018-11-01T21:37:23.993Z,98.30
2018-11-01T21:39:51.608Z,98.00
2018-11-01T21:42:19.167Z,97.70
2018-11-01T21:44:46.803Z,97.30
2018-11-01T21:47:14.294Z,97.00
2018-11-01T21:49:41.966Z,97.00
2018-11-01T21:52:09.603Z,96.70
2018-11-01T21:54:37.190Z,96.60
2018-11-01T21:57:04.983Z,96.20
2018-11-01T21:59:32.577Z,95.90
2018-11-01T22:02:00.258Z,95.90
2018-11-01T22:04:27.757Z,95.90
2018-11-01T22:06:55.302Z,95.80
2018-11-01T22:09:22.969Z,96.10
2018-11-01T22:11:50.607Z,96.10
2018-11-01T22:14:18.128Z,96.30
2018-11-01T22:16:45.804Z,96.00
2018-11-01T22:19:13.371Z,95.90
2018-11-01T22:21:41.025Z,95.60
2018-11-01T22:24:08.693Z,95.50
2018-11-01T22:26:36.349Z,95.50
2018-11-01T22:29:04.017Z,95.30
2018-11-01T22:31:31.536Z,95.10
2018-11-01T22:33:59.121Z,94.90
2018-11-01T22:36:26.652Z,94.80
2018-11-01T22:38:54.256Z,94.60
2018-11-01T22:41:21.779Z,94.30
2018-11-01T22:43:49.355Z,94.00
2018-11-01T22:46:16.897Z,94.00
2018-11-01T22:48:44.561Z,93.60
2018-11-01T22:51:12.051Z,93.60
2018-11-01T22:53:39.801Z,93.50
2018-11-01T22:56:08.222Z,93.40
2018-11-01T22:58:35.887Z,93.20
2018-11-01T23:01:03.425Z,93.00
2018-11-01T23:03:31.025Z,93.00
2018-11-01T23:05:58.530Z,92.80
2018-11-01T23:08:26.109Z,92.90
2018-11-01T23:10:53.786Z,92.80
2018-11-01T23:13:21.338Z,92.80
2018-11-01T23:15:48.922Z,92.80
2018-11-01T23:18:16.415Z,93.30
2018-11-01T23:20:44.043Z,93.40
2018-11-01T23:23:11.570Z,93.60
2018-11-01T23:25:39.114Z,93.50
2018-11-01T23:28:06.627Z,93.80
2018-11-01T23:30:34.207Z,94.40
2018-11-01T23:33:02.097Z,94.70
2018-11-01T23:35:29.646Z,94.70
2018-11-01T23:38:03.112Z,94.60
2018-11-01T23:40:36.346Z,94.90
2018-11-01T23:43:09.701Z,95.00
2018-11-01T23:45:42.941Z,94.90
2018-11-01T23:48:09.912Z,94.70
2018-11-01T23:51:41.746Z,94.60
2018-11-01T23:54:09.261Z,94.60
2018-11-01T23:56:36.787Z,94.60
2018-11-01T23:59:04.329Z,94.50
